Time;durP1;ratioP1;P1;durP2;ratioP2;P2;SDS_P1;SDS_P2;PMS_P1;PMS_P2;Temp;Humidity;BMP_temperature;BMP_pressure;BME280_temperature;BME280_humidity;BME280_pressure;Samples;Min_cycle;Max_cycle;Signal;HPM_P1;HPM_P2
2021/03/24 00:01:26;;;;;;;20.97;13.17;;;7.70;57.00;;;;;;5052697;28;20031;-77
2021/03/24 00:03:53;;;;;;;20.60;13.10;;;7.70;56.70;;;;;;5052371;28;20470;-75
2021/03/24 00:06:19;;;;;;;22.23;13.33;;;7.70;57.20;;;;;;5052597;28;20096;-76
2021/03/24 00:08:46;;;;;;;18.90;13.37;;;7.60;57.50;;;;;;5052537;28;20025;-76
2021/03/24 00:11:14;;;;;;;20.47;12.87;;;7.50;58.00;;;;;;5052637;28;20029;-76
2021/03/24 00:13:41;;;;;;;19.17;12.33;;;7.40;58.20;;;;;;5052485;28;20032;-75
2021/03/24 00:16:07;;;;;;;25.43;13.77;;;7.40;58.50;;;;;;5052717;28;20104;-76
2021/03/24 00:18:33;;;;;;;21.80;13.73;;;7.30;58.40;;;;;;5052510;28;20040;-76
2021/03/24 00:21:00;;;;;;;18.50;12.50;;;7.30;58.70;;;;;;5052689;28;20025;-77
2021/03/24 00:23:26;;;;;;;25.03;13.63;;;7.30;58.70;;;;;;5050664;28;20051;-75
2021/03/24 00:25:52;;;;;;;20.03;12.57;;;7.20;58.70;;;;;;5053069;28;20029;-77
2021/03/24 00:28:18;;;;;;;25.50;13.27;;;7.20;59.10;;;;;;5056192;28;20025;-77
2021/03/24 00:30:46;;;;;;;22.17;13.10;;;7.20;58.90;;;;;;5056042;28;20021;-76
2021/03/24 00:33:17;;;;;;;20.67;11.67;;;7.20;58.50;;;;;;5055881;28;20032;-77
2021/03/24 00:35:43;;;;;;;20.70;12.83;;;7.30;58.30;;;;;;5055760;28;20036;-77
2021/03/24 00:38:10;;;;;;;23.43;12.53;;;7.20;58.00;;;;;;5055849;28;20036;-76
2021/03/24 00:40:42;;;;;;;22.47;13.40;;;7.30;57.90;;;;;;5056093;28;20025;-77
2021/03/24 00:43:08;;;;;;;19.67;12.27;;;7.30;58.50;;;;;;5056062;28;20108;-76
2021/03/24 00:45:35;;;;;;;18.40;11.83;;;7.20;58.20;;;;;;5055823;28;20094;-75
2021/03/24 00:48:02;;;;;;;22.80;13.27;;;7.20;58.10;;;;;;5055507;28;20029;-77
2021/03/24 00:50:31;;;;;;;18.17;11.90;;;7.20;58.10;;;;;;5055715;28;20025;-76
2021/03/24 00:52:56;;;;;;;21.00;12.47;;;7.10;58.40;;;;;;5055858;28;20025;-75
2021/03/24 00:55:22;;;;;;;16.97;12.23;;;7.10;58.60;;;;;;5055881;28;20446;-77
2021/03/24 00:57:48;;;;;;;19.27;12.57;;;7.10;58.30;;;;;;5055547;28;20104;-75
2021/03/24 01:00:16;;;;;;;22.73;12.47;;;7.00;58.10;;;;;;5055646;28;20022;-76
2021/03/24 01:02:42;;;;;;;21.97;12.50;;;7.00;58.10;;;;;;5055925;28;20056;-76
2021/03/24 01:05:10;;;;;;;18.93;11.97;;;7.00;58.70;;;;;;5055636;28;20045;-76
2021/03/24 01:07:36;;;;;;;19.33;12.03;;;6.90;58.60;;;;;;5055289;28;20031;-76
2021/03/24 01:10:08;;;;;;;22.07;12.47;;;6.90;58.70;;;;;;5055592;28;20016;-76
2021/03/24 01:12:34;;;;;;;22.85;13.13;;;6.80;58.60;;;;;;5055689;28;20098;-75
2021/03/24 01:14:59;;;;;;;20.83;12.30;;;6.80;59.00;;;;;;5055473;28;20461;-77
2021/03/24 01:17:25;;;;;;;19.53;12.63;;;6.80;59.00;;;;;;5055613;28;20025;-75
2021/03/24 01:19:51;;;;;;;20.40;12.37;;;6.80;59.00;;;;;;5054063;28;20091;-77
2021/03/24 01:22:16;;;;;;;20.37;12.30;;;6.70;59.30;;;;;;5055478;28;20028;-75
2021/03/24 01:24:42;;;;;;;15.87;11.40;;;6.60;59.10;;;;;;5055185;28;20051;-76
2021/03/24 01:27:10;;;;;;;17.27;11.47;;;6.60;59.30;;;;;;5055168;28;20036;-75
2021/03/24 01:29:36;;;;;;;20.47;11.60;;;6.60;59.80;;;;;;5054934;28;20458;-75
2021/03/24 01:32:02;;;;;;;18.07;11.07;;;6.60;59.50;;;;;;5054799;28;20056;-75
2021/03/24 01:34:27;;;;;;;18.70;10.60;;;6.50;59.50;;;;;;5055098;28;20534;-76
2021/03/24 01:36:53;;;;;;;16.33;10.93;;;6.50;59.50;;;;;;5054509;28;20035;-76
2021/03/24 01:39:18;;;;;;;17.20;10.93;;;6.50;59.70;;;;;;5054916;28;20452;-76
2021/03/24 01:41:44;;;;;;;23.03;11.17;;;6.50;59.60;;;;;;5054574;28;20489;-76
2021/03/24 01:44:10;;;;;;;21.00;13.40;;;6.40;59.20;;;;;;5054819;28;20397;-76
2021/03/24 01:46:44;;;;;;;21.63;13.57;;;6.40;59.40;;;;;;5054863;28;20021;-76
2021/03/24 01:49:18;;;;;;;21.57;13.33;;;6.40;59.70;;;;;;5054444;28;20367;-76
2021/03/24 01:51:57;;;;;;;18.90;11.33;;;6.40;59.60;;;;;;5054441;28;20029;-75
2021/03/24 01:54:36;;;;;;;18.50;11.73;;;6.30;59.30;;;;;;5054868;28;20067;-76
2021/03/24 01:57:16;;;;;;;19.40;10.20;;;6.30;59.20;;;;;;5054437;28;20053;-76
2021/03/24 01:59:42;;;;;;;19.93;10.97;;;6.40;59.10;;;;;;5051048;28;20021;-76
2021/03/24 02:02:21;;;;;;;21.13;11.17;;;6.40;59.00;;;;;;5051806;28;20025;-76
2021/03/24 02:04:49;;;;;;;24.10;9.90;;;6.30;59.40;;;;;;5052919;28;20029;-75
2021/03/24 02:07:23;;;;;;;17.50;10.03;;;6.30;59.60;;;;;;5054184;28;20017;-75
2021/03/24 02:10:05;;;;;;;21.87;10.70;;;6.20;59.50;;;;;;5054057;28;20104;-75
2021/03/24 02:13:13;;;;;;;21.50;10.77;;;6.20;59.70;;;;;;5054069;28;20017;-76
2021/03/24 02:16:04;;;;;;;20.90;10.33;;;6.10;60.00;;;;;;5052693;28;20033;-76
2021/03/24 02:18:32;;;;;;;17.67;10.37;;;6.00;60.10;;;;;;5053515;28;20049;-76
2021/03/24 02:21:00;;;;;;;17.13;9.57;;;6.00;60.10;;;;;;5053868;28;20154;-76
2021/03/24 02:23:43;;;;;;;19.73;10.57;;;6.00;59.90;;;;;;5053736;28;20029;-76
2021/03/24 02:26:33;;;;;;;23.17;11.50;;;6.00;60.00;;;;;;5053833;28;20032;-76
2021/03/24 02:29:01;;;;;;;18.73;10.60;;;6.00;60.70;;;;;;5053515;28;20461;-76
2021/03/24 02:31:29;;;;;;;17.93;10.03;;;6.00;60.30;;;;;;5053517;28;20095;-76
2021/03/24 02:33:59;;;;;;;16.33;10.53;;;5.90;60.30;;;;;;5053488;28;20025;-77
2021/03/24 02:36:26;;;;;;;18.40;10.87;;;5.90;60.80;;;;;;5053528;28;20028;-77
2021/03/24 02:38:55;;;;;;;18.13;10.77;;;5.80;60.50;;;;;;5053520;28;20123;-75
2021/03/24 02:41:21;;;;;;;18.00;10.87;;;5.80;60.40;;;;;;5053696;28;20385;-76
2021/03/24 02:43:47;;;;;;;19.30;10.20;;;5.80;60.60;;;;;;5053404;28;20469;-76
2021/03/24 02:46:15;;;;;;;18.60;10.63;;;5.80;60.70;;;;;;5053603;28;20017;-76
2021/03/24 02:48:43;;;;;;;16.27;10.43;;;5.80;60.40;;;;;;5052939;28;20021;-76
2021/03/24 02:51:15;;;;;;;17.67;10.40;;;5.80;61.20;;;;;;5053253;28;20489;-76
2021/03/24 02:53:41;;;;;;;16.20;10.05;;;5.80;60.60;;;;;;5053265;28;20500;-76
2021/03/24 02:56:10;;;;;;;19.27;10.03;;;5.80;60.20;;;;;;5053427;28;20023;-75
2021/03/24 02:58:36;;;;;;;14.00;8.77;;;5.70;60.50;;;;;;5052938;28;20143;-76
2021/03/24 03:01:44;;;;;;;16.07;9.80;;;5.70;60.50;;;;;;5053617;28;20031;-76
2021/03/24 03:04:16;;;;;;;19.50;8.97;;;5.70;60.60;;;;;;5052046;28;20021;-75
2021/03/24 03:06:43;;;;;;;14.65;9.20;;;5.70;60.30;;;;;;5053449;28;20025;-76
2021/03/24 03:09:20;;;;;;;14.20;8.87;;;5.60;60.10;;;;;;5053312;28;20025;-76
2021/03/24 03:11:55;;;;;;;12.87;8.23;;;5.60;60.20;;;;;;5053020;28;20432;-75
2021/03/24 03:14:44;;;;;;;16.17;9.20;;;5.60;60.10;;;;;;5052835;28;20036;-76
2021/03/24 03:17:34;;;;;;;12.53;8.40;;;5.60;60.00;;;;;;5051757;28;20044;-75
2021/03/24 03:20:09;;;;;;;14.73;9.03;;;5.60;60.40;;;;;;5053015;28;20551;-76
2021/03/24 03:23:01;;;;;;;17.13;8.93;;;5.60;60.00;;;;;;5052981;28;20036;-76
2021/03/24 03:25:33;;;;;;;12.77;9.20;;;5.60;60.00;;;;;;5052628;28;20033;-75
2021/03/24 03:28:05;;;;;;;17.13;8.97;;;5.60;60.20;;;;;;5053066;28;20052;-76
2021/03/24 03:30:34;;;;;;;15.33;8.77;;;5.50;60.20;;;;;;5053087;28;20021;-76
2021/03/24 03:33:04;;;;;;;16.80;9.57;;;5.50;60.20;;;;;;5052645;28;20485;-78
2021/03/24 03:35:31;;;;;;;18.00;8.50;;;5.40;60.10;;;;;;5053087;28;20013;-77
2021/03/24 03:38:00;;;;;;;15.63;8.90;;;5.40;60.10;;;;;;5052695;28;20455;-75
2021/03/24 03:40:28;;;;;;;15.83;8.50;;;5.40;60.20;;;;;;5052878;28;20025;-77
2021/03/24 03:42:54;;;;;;;12.47;7.90;;;5.40;60.30;;;;;;5053068;28;20025;-76
2021/03/24 03:45:21;;;;;;;13.87;8.77;;;5.40;60.00;;;;;;5052787;28;20021;-76
2021/03/24 03:47:48;;;;;;;15.30;7.20;;;5.40;60.10;;;;;;5052665;28;20027;-77
2021/03/24 03:50:18;;;;;;;13.13;8.30;;;5.40;59.80;;;;;;5052687;28;20116;-77
2021/03/24 03:52:59;;;;;;;16.30;8.10;;;5.30;59.80;;;;;;5052549;28;20382;-76
2021/03/24 03:55:42;;;;;;;15.03;8.27;;;5.30;60.10;;;;;;5052520;28;20507;-76
2021/03/24 03:58:32;;;;;;;18.53;8.17;;;5.30;60.30;;;;;;5052500;28;20113;-75
2021/03/24 04:01:07;;;;;;;13.53;8.50;;;5.20;60.30;;;;;;5055256;28;20032;-76
2021/03/24 04:03:40;;;;;;;19.57;7.87;;;5.20;60.20;;;;;;5056524;28;20029;-76
2021/03/24 04:06:10;;;;;;;13.33;8.40;;;5.20;60.20;;;;;;5056804;28;20104;-77
2021/03/24 04:08:36;;;;;;;15.23;8.47;;;5.20;60.00;;;;;;5056487;28;20036;-76
2021/03/24 04:11:08;;;;;;;16.30;7.57;;;5.20;60.60;;;;;;5055360;28;20037;-77
2021/03/24 04:13:37;;;;;;;13.53;7.33;;;5.20;60.30;;;;;;5057059;28;20043;-76
2021/03/24 04:16:04;;;;;;;16.17;8.00;;;5.10;60.30;;;;;;5056482;28;20082;-76
2021/03/24 04:18:41;;;;;;;27.13;7.60;;;5.10;60.40;;;;;;5056323;28;20064;-75
2021/03/24 04:21:09;;;;;;;24.27;7.77;;;5.10;60.50;;;;;;5056135;28;20036;-75
2021/03/24 04:23:40;;;;;;;29.87;8.50;;;5.10;60.20;;;;;;5056299;28;20412;-77
2021/03/24 04:26:12;;;;;;;30.23;8.33;;;5.10;60.20;;;;;;5056302;28;20412;-76
2021/03/24 04:31:32;;;;;;;28.30;8.63;;;5.10;60.50;;;;;;5048844;28;20041;-76
2021/03/24 04:33:58;;;;;;;16.57;8.17;;;5.10;60.80;;;;;;5056219;28;20029;-76
2021/03/24 04:36:34;;;;;;;18.93;8.00;;;5.00;61.30;;;;;;5056475;28;20381;-76
2021/03/24 04:39:06;;;;;;;16.17;8.17;;;5.00;60.80;;;;;;5056062;28;20041;-75
2021/03/24 04:41:38;;;;;;;16.07;9.03;;;5.00;60.80;;;;;;5056220;28;20078;-76
2021/03/24 04:44:16;;;;;;;15.40;8.70;;;5.00;60.70;;;;;;5055847;28;20104;-76
2021/03/24 04:46:45;;;;;;;18.00;8.87;;;4.90;60.70;;;;;;5055645;28;20051;-76
2021/03/24 04:49:19;;;;;;;16.37;9.17;;;4.90;60.70;;;;;;5055538;28;20029;-76
2021/03/24 04:51:45;;;;;;;15.87;8.67;;;4.90;60.70;;;;;;5055744;28;20029;-77
2021/03/24 04:54:31;;;;;;;21.80;9.67;;;4.90;61.10;;;;;;5055810;28;20052;-76
2021/03/24 04:57:05;;;;;;;24.50;10.30;;;4.90;61.20;;;;;;5055790;28;20036;-75
2021/03/24 04:59:37;;;;;;;24.00;11.10;;;4.90;61.10;;;;;;5055766;28;20367;-76
2021/03/24 05:02:24;;;;;;;20.17;11.40;;;4.90;61.00;;;;;;5055750;28;20029;-76
2021/03/24 05:04:56;;;;;;;23.97;12.47;;;4.90;60.90;;;;;;5055447;28;20029;-75
2021/03/24 05:07:39;;;;;;;25.60;11.83;;;4.90;61.10;;;;;;5055626;28;20132;-75
2021/03/24 05:10:12;;;;;;;20.20;10.55;;;4.90;61.10;;;;;;5055509;28;20021;-78
2021/03/24 05:12:42;;;;;;;19.97;10.53;;;4.80;61.40;;;;;;5054445;28;20021;-75
2021/03/24 05:15:11;;;;;;;18.73;10.13;;;4.80;61.20;;;;;;5055124;28;20028;-76
2021/03/24 05:17:41;;;;;;;19.43;10.73;;;4.80;61.70;;;;;;5055383;28;20118;-76
2021/03/24 05:20:15;;;;;;;23.33;11.27;;;4.80;61.80;;;;;;5055389;28;20021;-75
2021/03/24 05:22:45;;;;;;;23.00;10.00;;;4.80;61.90;;;;;;5055138;28;20036;-76
2021/03/24 05:25:33;;;;;;;21.80;9.93;;;4.80;62.00;;;;;;5055403;28;20027;-76
2021/03/24 05:28:05;;;;;;;20.27;10.50;;;4.80;62.30;;;;;;5053998;28;20226;-75
2021/03/24 05:30:37;;;;;;;24.43;10.17;;;4.70;62.60;;;;;;5054998;28;20466;-75
2021/03/24 05:33:21;;;;;;;23.77;10.20;;;4.70;62.20;;;;;;5054879;28;20506;-75
2021/03/24 05:35:57;;;;;;;20.30;10.03;;;4.70;62.20;;;;;;5055063;28;20021;-76
2021/03/24 05:38:39;;;;;;;23.37;10.07;;;4.70;62.20;;;;;;5054914;28;20029;-75
2021/03/24 05:41:44;;;;;;;27.77;9.70;;;4.70;62.80;;;;;;5054844;28;20106;-76
2021/03/24 05:44:28;;;;;;;21.70;9.23;;;4.80;62.00;;;;;;5054751;28;20051;-75
2021/03/24 05:47:09;;;;;;;22.10;9.40;;;4.80;62.20;;;;;;5055078;28;20025;-75
2021/03/24 05:49:46;;;;;;;21.90;8.43;;;4.80;62.30;;;;;;5054784;28;20021;-75
2021/03/24 05:52:39;;;;;;;20.93;9.03;;;4.80;62.00;;;;;;5054378;28;20382;-77
2021/03/24 05:55:38;;;;;;;17.15;8.35;;;4.90;62.00;;;;;;5054630;28;20552;-75
2021/03/24 05:58:08;;;;;;;21.00;8.03;;;4.90;62.00;;;;;;5054701;28;20036;-75
2021/03/24 06:01:07;;;;;;;13.20;6.60;;;5.00;61.80;;;;;;5054806;28;20029;-75
2021/03/24 06:03:56;;;;;;;15.60;5.50;;;5.00;61.70;;;;;;5043984;28;20041;-77
2021/03/24 06:07:18;;;;;;;10.00;4.90;;;5.10;61.00;;;;;;5054382;28;20028;-76
2021/03/24 06:10:14;;;;;;;11.60;4.63;;;5.20;60.60;;;;;;5031945;28;20112;-76
2021/03/24 06:13:07;;;;;;;7.17;3.30;;;5.30;60.10;;;;;;5032353;28;20457;-75
2021/03/24 06:15:59;;;;;;;12.73;3.70;;;5.40;59.50;;;;;;5053590;28;20051;-75
2021/03/24 06:18:46;;;;;;;8.67;3.93;;;5.60;59.40;;;;;;5054422;28;20426;-75
2021/03/24 06:21:15;;;;;;;7.77;3.93;;;5.70;59.20;;;;;;5054309;28;20029;-75
2021/03/24 06:23:58;;;;;;;7.70;3.70;;;5.80;59.10;;;;;;5053355;28;20078;-75
2021/03/24 06:26:58;;;;;;;8.97;4.33;;;5.90;59.00;;;;;;5054021;28;20036;-75
2021/03/24 06:29:50;;;;;;;10.60;3.90;;;6.00;58.60;;;;;;5054077;28;20385;-75
2021/03/24 06:32:21;;;;;;;12.43;3.60;;;6.00;58.10;;;;;;5053706;28;20085;-75
2021/03/24 06:35:12;;;;;;;20.67;5.67;;;6.10;58.00;;;;;;5053940;28;20029;-75
2021/03/24 06:37:41;;;;;;;10.50;6.80;;;6.20;58.20;;;;;;5053709;28;20033;-75
2021/03/24 06:40:34;;;;;;;14.17;7.67;;;6.30;59.00;;;;;;5053928;28;20108;-75
2021/03/24 06:43:15;;;;;;;11.93;7.20;;;6.40;59.70;;;;;;5053763;28;20029;-75
2021/03/24 06:45:51;;;;;;;11.37;6.90;;;6.40;60.20;;;;;;5053709;28;20484;-75
2021/03/24 06:48:51;;;;;;;13.23;6.80;;;6.40;59.90;;;;;;5053629;28;20469;-75
2021/03/24 06:51:53;;;;;;;24.80;7.03;;;6.50;59.70;;;;;;5053696;28;20035;-76
2021/03/24 06:54:40;;;;;;;16.67;5.87;;;6.60;59.60;;;;;;5053453;28;20028;-76
2021/03/24 06:57:47;;;;;;;8.20;5.30;;;6.70;59.50;;;;;;5053487;28;20020;-76
2021/03/24 07:00:18;;;;;;;13.40;6.27;;;6.80;59.20;;;;;;5050761;28;20049;-74
2021/03/24 07:03:15;;;;;;;11.30;6.03;;;6.80;59.00;;;;;;5053532;28;20402;-74
2021/03/24 07:06:07;;;;;;;8.77;5.07;;;6.90;58.90;;;;;;5053454;28;20017;-76
2021/03/24 07:08:53;;;;;;;5.77;3.47;;;7.00;59.10;;;;;;5053425;28;20021;-75
2021/03/24 07:11:42;;;;;;;10.57;3.53;;;7.20;57.70;;;;;;5053432;28;20070;-75
2021/03/24 07:14:31;;;;;;;15.27;4.23;;;7.20;56.70;;;;;;5053374;28;20504;-78
2021/03/24 07:17:21;;;;;;;5.37;2.90;;;7.30;55.90;;;;;;5041661;28;20039;-75
2021/03/24 07:20:11;;;;;;;8.80;3.60;;;7.40;55.60;;;;;;5053313;28;20033;-75
2021/03/24 07:23:06;;;;;;;11.07;3.60;;;7.50;55.30;;;;;;5053285;28;20147;-75
2021/03/24 07:25:53;;;;;;;8.73;3.23;;;7.60;55.30;;;;;;5053372;28;20039;-76
2021/03/24 07:28:34;;;;;;;5.97;3.30;;;7.70;55.30;;;;;;5052878;28;20028;-75
2021/03/24 07:31:24;;;;;;;11.03;3.13;;;7.80;55.00;;;;;;5050128;28;20513;-73
2021/03/24 07:33:58;;;;;;;8.80;3.63;;;7.80;54.70;;;;;;5050625;28;20052;-76
2021/03/24 07:36:54;;;;;;;11.20;3.53;;;8.00;54.50;;;;;;5051675;28;20108;-80
2021/03/24 07:39:42;;;;;;;9.87;3.50;;;8.10;54.40;;;;;;5052910;28;20116;-74
2021/03/24 07:42:45;;;;;;;6.93;3.83;;;8.20;54.30;;;;;;5053034;28;20037;-83
2021/03/24 07:45:28;;;;;;;8.80;4.47;;;8.30;54.00;;;;;;5052993;28;20116;-90
2021/03/24 07:48:27;;;;;;;10.63;4.87;;;8.40;53.90;;;;;;5052821;28;20385;-75
2021/03/24 07:51:43;;;;;;;13.80;4.97;;;8.50;53.70;;;;;;5052933;28;20032;-75
2021/03/24 07:54:19;;;;;;;12.53;4.93;;;8.60;53.50;;;;;;5052824;28;20025;-81
2021/03/24 07:57:14;;;;;;;9.13;5.33;;;8.70;53.00;;;;;;5053084;28;20021;-84
2021/03/24 07:59:46;;;;;;;11.47;5.17;;;8.70;52.80;;;;;;5045371;28;20037;-76
2021/03/24 08:02:36;;;;;;;14.35;5.63;;;8.80;52.90;;;;;;5052359;28;20100;-78
2021/03/24 08:05:19;;;;;;;7.97;4.43;;;8.90;52.70;;;;;;5052318;28;20122;-79
2021/03/24 08:08:11;;;;;;;7.97;4.43;;;8.90;52.20;;;;;;5052646;28;20090;-82
2021/03/24 08:11:21;;;;;;;8.70;3.73;;;9.10;52.00;;;;;;5050170;28;20049;-79
2021/03/24 08:14:10;;;;;;;12.37;4.00;;;9.10;52.00;;;;;;5028994;28;20516;-78
2021/03/24 08:17:21;;;;;;;6.43;3.30;;;9.20;50.90;;;;;;5041736;28;20523;-76
2021/03/24 08:20:00;;;;;;;9.53;3.00;;;9.30;50.10;;;;;;5047496;28;20120;-91
2021/03/24 08:22:47;;;;;;;8.27;3.10;;;9.40;49.20;;;;;;5053069;28;20021;-87
2021/03/24 08:25:38;;;;;;;6.00;3.17;;;9.40;49.30;;;;;;5051825;28;20063;-77
2021/03/24 08:28:25;;;;;;;5.97;3.03;;;9.50;48.30;;;;;;5052598;28;20492;-77
2021/03/24 08:31:02;;;;;;;7.07;3.23;;;9.60;48.90;;;;;;5052569;28;20029;-77
2021/03/24 08:33:35;;;;;;;6.60;2.83;;;9.70;48.80;;;;;;5052648;28;20385;-85
2021/03/24 08:36:37;;;;;;;6.40;3.25;;;9.80;48.70;;;;;;5052406;28;20048;-83
2021/03/24 08:39:25;;;;;;;9.68;3.50;;;9.90;48.50;;;;;;5052634;28;20036;-78
2021/03/24 08:42:01;;;;;;;10.20;3.07;;;9.90;48.00;;;;;;5066074;28;20096;-85
2021/03/24 08:44:45;;;;;;;4.23;2.53;;;;;;;;;;5065515;28;20025;-79
2021/03/24 08:47:25;;;;;;;8.67;3.53;;;10.20;48.00;;;;;;5055604;28;20029;-81
2021/03/24 08:49:57;;;;;;;5.67;3.00;;;10.30;49.20;;;;;;5054756;28;20049;-81
2021/03/24 08:52:38;;;;;;;7.13;3.25;;;10.40;49.30;;;;;;5056126;28;20424;-82
2021/03/24 08:55:35;;;;;;;5.93;3.00;;;10.50;48.20;;;;;;5056501;28;20099;-81
2021/03/24 08:58:15;;;;;;;10.17;3.50;;;10.60;47.40;;;;;;5055705;28;20068;-79
2021/03/24 09:00:53;;;;;;;5.30;2.97;;;10.70;47.70;;;;;;5056387;28;20029;-81
2021/03/24 09:03:40;;;;;;;10.20;4.97;;;10.80;47.10;;;;;;5057125;28;20108;-81
2021/03/24 09:06:30;;;;;;;7.33;3.33;;;10.90;46.80;;;;;;5056914;28;20025;-80
2021/03/24 09:09:33;;;;;;;7.30;3.17;;;10.90;46.40;;;;;;5054683;28;20025;-82
2021/03/24 09:12:32;;;;;;;7.47;2.92;;;11.00;44.10;;;;;;5054797;28;20044;-81
2021/03/24 09:15:15;;;;;;;8.93;2.60;;;11.10;44.60;;;;;;5049664;28;20065;-83
2021/03/24 09:17:57;;;;;;;4.37;2.13;;;11.20;42.50;;;;;;5054502;28;20489;-79
2021/03/24 09:20:52;;;;;;;3.63;1.83;;;11.20;43.30;;;;;;5054469;28;20131;-84
2021/03/24 09:23:17;;;;;;;5.80;2.65;;;11.30;43.10;;;;;;5049992;28;20041;-78
2021/03/24 09:26:21;;;;;;;8.15;3.72;;;11.40;43.10;;;;;;5053232;28;20025;-83
2021/03/24 09:29:11;;;;;;;6.38;2.88;;;11.50;43.50;;;;;;5047225;28;20116;-80
2021/03/24 09:31:39;;;;;;;6.82;3.15;;;11.60;43.60;;;;;;5053745;28;20047;-82
2021/03/24 09:34:42;;;;;;;5.50;3.05;;;11.70;43.20;;;;;;5054521;28;20032;-87
2021/03/24 09:37:11;;;;;;;8.35;3.53;;;11.70;42.40;;;;;;5055308;28;20120;-86
2021/03/24 09:39:58;;;;;;;13.55;4.25;;;11.80;42.80;;;;;;5055026;28;20033;-83
2021/03/24 09:42:47;;;;;;;5.55;3.42;;;11.90;43.90;;;;;;5053944;28;20017;-82
2021/03/24 09:45:13;;;;;;;8.50;3.40;;;12.00;45.10;;;;;;5053844;28;20116;-82
2021/03/24 09:48:00;;;;;;;7.07;3.35;;;12.10;44.20;;;;;;5054980;28;20053;-83
2021/03/24 09:50:31;;;;;;;6.20;3.83;;;12.20;42.30;;;;;;5053560;28;20115;-82
2021/03/24 09:53:17;;;;;;;5.50;3.13;;;12.30;40.50;;;;;;5053920;28;20025;-82
2021/03/24 09:55:54;;;;;;;10.93;4.32;;;12.30;41.00;;;;;;5051920;28;20103;-82
2021/03/24 09:58:23;;;;;;;9.85;4.72;;;12.40;41.50;;;;;;5053546;28;20052;-83
2021/03/24 10:01:04;;;;;;;6.60;3.58;;;12.50;41.90;;;;;;5054210;28;20534;-81
2021/03/24 10:03:58;;;;;;;6.97;4.22;;;12.60;42.00;;;;;;5054386;28;20039;-83
2021/03/24 10:06:42;;;;;;;7.05;3.72;;;12.60;41.10;;;;;;5054105;28;20021;-82
2021/03/24 10:09:35;;;;;;;7.75;3.47;;;12.80;39.10;;;;;;5054882;28;20405;-83
2021/03/24 10:12:06;;;;;;;9.63;3.85;;;12.80;40.00;;;;;;5054671;28;20020;-82
2021/03/24 10:14:45;;;;;;;9.70;4.07;;;12.90;41.10;;;;;;5053202;28;20427;-82
2021/03/24 10:17:24;;;;;;;7.30;3.97;;;13.00;40.90;;;;;;5054393;28;20029;-84
2021/03/24 10:20:21;;;;;;;7.43;3.75;;;13.10;40.30;;;;;;5054436;28;20022;-81
2021/03/24 10:23:11;;;;;;;9.18;4.20;;;13.10;41.70;;;;;;5053917;28;20025;-81
2021/03/24 10:25:41;;;;;;;7.65;4.40;;;13.30;40.90;;;;;;5031854;28;20044;-81
2021/03/24 10:28:13;;;;;;;8.60;4.50;;;13.30;40.00;;;;;;5054043;28;20029;-81
2021/03/24 10:30:42;;;;;;;9.73;4.40;;;13.40;40.90;;;;;;5053755;28;20024;-84
2021/03/24 10:33:24;;;;;;;9.27;4.75;;;13.50;41.50;;;;;;5053966;28;20033;-84
2021/03/24 10:35:56;;;;;;;8.50;4.93;;;13.50;40.60;;;;;;5053706;28;20051;-83
2021/03/24 10:38:24;;;;;;;10.32;5.00;;;13.70;39.90;;;;;;5052261;28;20094;-85
2021/03/24 10:41:13;;;;;;;11.98;4.60;;;13.70;39.40;;;;;;5053642;28;20025;-84
2021/03/24 10:44:24;;;;;;;7.07;4.28;;;13.80;40.20;;;;;;5053788;28;20021;-85
2021/03/24 10:47:11;;;;;;;11.60;5.43;;;13.90;40.30;;;;;;5031674;28;20029;-85
2021/03/24 10:49:47;;;;;;;8.98;4.93;;;13.90;38.70;;;;;;5015337;28;20498;-88
2021/03/24 10:52:19;;;;;;;12.48;5.05;;;14.00;39.00;;;;;;5047591;28;20033;-83
2021/03/24 10:54:54;;;;;;;11.57;5.10;;;14.00;40.40;;;;;;5052473;28;20025;-84
2021/03/24 10:57:47;;;;;;;9.90;4.70;;;14.10;40.00;;;;;;5052170;28;20039;-85
2021/03/24 11:00:19;;;;;;;16.27;5.80;;;14.20;39.60;;;;;;5051923;28;20017;-80
2021/03/24 11:03:22;;;;;;;8.33;5.43;;;14.30;39.20;;;;;;5053259;28;20025;-86
2021/03/24 11:06:01;;;;;;;13.82;6.07;;;14.40;37.90;;;;;;5052589;28;20097;-86
2021/03/24 11:08:57;;;;;;;10.15;6.22;;;14.40;38.40;;;;;;5052228;28;20440;-85
2021/03/24 11:11:37;;;;;;;12.70;5.45;;;14.50;39.20;;;;;;5051953;28;20021;-86
2021/03/24 11:14:10;;;;;;;8.50;5.53;;;14.60;39.50;;;;;;5051970;28;20013;-84
2021/03/24 11:16:42;;;;;;;10.32;5.72;;;14.70;39.70;;;;;;5053650;28;20389;-84
2021/03/24 11:19:17;;;;;;;9.30;5.95;;;14.80;38.20;;;;;;5053055;28;20029;-84
2021/03/24 11:22:05;;;;;;;8.25;5.68;;;14.80;38.90;;;;;;5051732;28;20032;-80
2021/03/24 11:24:42;;;;;;;11.18;5.43;;;14.90;38.90;;;;;;5053090;28;20466;-88
2021/03/24 11:27:22;;;;;;;10.07;4.97;;;15.00;39.00;;;;;;5051315;28;20549;-83
2021/03/24 11:29:53;;;;;;;13.68;4.75;;;15.10;38.20;;;;;;5052777;28;20029;-88
2021/03/24 11:32:49;;;;;;;13.25;5.80;;;15.10;37.50;;;;;;5052160;28;20128;-89
2021/03/24 11:35:37;;;;;;;9.93;5.82;;;15.20;36.10;;;;;;5053793;28;20061;-88
2021/03/24 11:38:25;;;;;;;13.15;6.22;;;15.20;37.90;;;;;;5053553;28;20036;-87
2021/03/24 11:41:09;;;;;;;6.35;4.80;;;15.30;37.80;;;;;;5051904;28;20044;-85
2021/03/24 11:43:40;;;;;;;11.70;5.85;;;15.40;39.30;;;;;;5051693;28;20033;-86
2021/03/24 11:46:21;;;;;;;9.02;5.20;;;15.50;38.20;;;;;;5052040;28;20033;-88
2021/03/24 11:49:05;;;;;;;9.85;6.10;;;15.60;38.10;;;;;;5051730;28;20396;-84
2021/03/24 11:51:47;;;;;;;8.73;5.68;;;15.60;36.80;;;;;;5051743;28;20032;-86
2021/03/24 11:54:45;;;;;;;10.77;6.03;;;15.70;36.30;;;;;;5050553;28;20029;-87
2021/03/24 11:57:30;;;;;;;8.73;6.18;;;15.70;35.60;;;;;;5042786;28;20048;-86
2021/03/24 12:00:07;;;;;;;8.88;5.80;;;15.70;36.70;;;;;;5051084;28;20090;-86
2021/03/24 12:03:10;;;;;;;9.73;5.65;;;15.70;35.90;;;;;;5052298;28;20025;-86
2021/03/24 12:05:55;;;;;;;11.32;5.63;;;15.80;36.80;;;;;;5051307;28;20052;-84
2021/03/24 12:08:58;;;;;;;13.20;6.05;;;15.70;37.40;;;;;;5051146;28;20048;-86
2021/03/24 12:11:32;;;;;;;10.77;6.28;;;15.80;35.40;;;;;;5050888;28;20033;-87
2021/03/24 12:14:24;;;;;;;10.07;6.10;;;15.80;37.00;;;;;;5050734;28;20120;-84
2021/03/24 12:16:59;;;;;;;7.90;6.47;;;15.80;35.20;;;;;;5051367;28;20481;-88
2021/03/24 12:19:37;;;;;;;11.45;6.28;;;15.80;36.70;;;;;;5051450;28;20025;-85
2021/03/24 12:22:16;;;;;;;12.07;6.25;;;15.90;36.90;;;;;;5051842;28;20025;-84
2021/03/24 12:24:49;;;;;;;13.48;6.65;;;15.90;37.00;;;;;;5051837;28;20481;-89
2021/03/24 12:27:18;;;;;;;9.05;5.85;;;16.00;36.50;;;;;;5038853;28;20547;-87
2021/03/24 12:29:55;;;;;;;11.15;5.82;;;16.10;36.60;;;;;;5055307;28;20114;-83
2021/03/24 12:32:24;;;;;;;12.75;5.97;;;16.10;37.30;;;;;;5053384;28;20051;-88
2021/03/24 12:34:52;;;;;;;9.52;5.85;;;16.30;35.90;;;;;;5053187;28;20044;-85
2021/03/24 12:37:36;;;;;;;10.15;5.70;;;16.40;36.80;;;;;;5054476;28;20048;-86
2021/03/24 12:40:18;;;;;;;8.95;6.10;;;16.50;37.10;;;;;;5055274;28;20439;-89
2021/03/24 12:42:47;;;;;;;15.02;6.45;;;16.70;36.10;;;;;;5055410;28;20032;-86
2021/03/24 12:45:49;;;;;;;9.70;6.55;;;16.70;35.30;;;;;;5055248;28;20027;-86
2021/03/24 12:48:21;;;;;;;9.57;6.30;;;16.80;35.70;;;;;;5044579;28;20497;-84
2021/03/24 12:50:55;;;;;;;9.30;6.50;;;16.80;35.70;;;;;;5056350;28;20025;-85
2021/03/24 12:53:51;;;;;;;12.43;5.63;;;16.80;35.40;;;;;;5055014;28;20537;-86
2021/03/24 12:56:35;;;;;;;13.55;6.28;;;16.70;35.80;;;;;;5055241;28;20067;-86
2021/03/24 12:59:29;;;;;;;8.88;5.47;;;16.60;34.50;;;;;;5056006;28;20079;-86
2021/03/24 13:02:22;;;;;;;9.73;5.40;;;16.40;35.80;;;;;;5054477;28;20033;-81
2021/03/24 13:05:25;;;;;;;10.90;6.18;;;16.30;36.60;;;;;;5055373;28;20031;-78
2021/03/24 13:08:24;;;;;;;9.98;6.32;;;16.20;35.80;;;;;;5056145;28;20040;-80
2021/03/24 13:11:17;;;;;;;10.00;6.80;;;16.20;35.80;;;;;;5055779;28;20029;-79
2021/03/24 13:13:53;;;;;;;9.43;6.10;;;16.20;37.40;;;;;;5055119;28;20040;-84
2021/03/24 13:16:34;;;;;;;14.60;6.72;;;16.10;36.30;;;;;;5055249;28;20021;-82
2021/03/24 13:19:19;;;;;;;8.73;6.07;;;16.10;36.00;;;;;;5068298;28;20016;-78
2021/03/24 13:21:58;;;;;;;14.68;6.28;;;16.00;36.60;;;;;;5060349;28;20040;-82
2021/03/24 13:24:30;;;;;;;11.88;5.60;;;16.00;36.70;;;;;;5055233;28;20041;-80
2021/03/24 13:26:59;;;;;;;11.57;6.20;;;16.00;37.30;;;;;;5063841;28;20036;-79
2021/03/24 13:29:52;;;;;;;8.52;5.78;;;16.00;37.70;;;;;;5059587;28;20267;-79
2021/03/24 13:32:47;;;;;;;10.60;6.18;;;15.90;37.30;;;;;;5063432;28;20059;-83
2021/03/24 13:35:31;;;;;;;12.50;6.50;;;16.00;37.80;;;;;;5072238;28;20089;-79
2021/03/24 13:37:57;;;;;;;8.65;5.88;;;16.00;37.70;;;;;;5075264;28;20028;-78
2021/03/24 13:40:27;;;;;;;10.75;6.18;;;16.00;37.70;;;;;;5062547;28;20025;-80
2021/03/24 13:42:55;;;;;;;16.13;6.40;;;15.90;38.20;;;;;;5052006;28;20068;-79
2021/03/24 13:45:49;;;;;;;8.25;6.20;;;15.90;37.90;;;;;;5058747;28;20024;-80
2021/03/24 13:48:25;;;;;;;9.77;5.93;;;15.90;38.30;;;;;;5060275;28;20055;-79